Time;durP1;ratioP1;P1;durP2;ratioP2;P2;SDS_P1;SDS_P2;PMS_P1;PMS_P2;Temp;Humidity;BMP_temperature;BMP_pressure;BME280_temperature;BME280_humidity;BME280_pressure;Samples;Min_cycle;Max_cycle;Signal;HPM_P1;HPM_P2
2023/11/02 00:01:07;;;;;;;3.40;1.17;;;10.40;72.10;;;12.21;52.37;95989.50;5032698;28;20412;-46
2023/11/02 00:03:41;;;;;;;2.83;1.10;;;10.30;72.10;;;12.14;52.51;95992.19;5024824;28;20435;-44
2023/11/02 00:06:36;;;;;;;1.15;1.05;;;10.30;72.50;;;12.10;52.38;95976.84;5032973;28;20049;-47
2023/11/02 00:09:06;;;;;;;3.23;1.10;;;10.20;72.70;;;12.06;52.75;95970.25;5030899;28;20057;-48
2023/11/02 00:12:07;;;;;;;3.60;0.97;;;10.10;74.00;;;12.01;52.76;95953.03;5032544;28;20049;-45
2023/11/02 00:14:56;;;;;;;2.27;1.20;;;10.20;72.80;;;12.00;52.92;95956.75;5001088;28;20505;-47
2023/11/02 00:17:35;;;;;;;1.37;0.90;;;10.20;72.80;;;11.98;52.86;95953.50;5031361;28;20108;-48
2023/11/02 00:20:08;;;;;;;4.07;1.10;;;10.20;72.70;;;12.01;52.92;95954.91;5032787;28;20050;-47
2023/11/02 00:22:44;;;;;;;1.30;1.10;;;10.20;72.50;;;11.99;52.99;95940.97;5025547;28;20041;-46
2023/11/02 00:25:52;;;;;;;1.07;0.80;;;10.20;72.20;;;12.01;53.08;95938.91;5032454;28;20057;-45
2023/11/02 00:28:20;;;;;;;1.40;1.00;;;10.30;72.20;;;12.04;53.20;95938.50;5031456;28;20523;-44
2023/11/02 00:30:50;;;;;;;1.43;1.00;;;10.30;72.30;;;12.00;53.04;95915.94;5030624;28;20049;-45
2023/11/02 00:33:20;;;;;;;1.87;0.83;;;10.30;72.10;;;11.96;53.27;95907.53;5030612;28;20402;-45
2023/11/02 00:35:52;;;;;;;1.00;0.80;;;10.40;71.60;;;11.89;53.07;95903.25;5030667;28;20060;-48
2023/11/02 00:38:26;;;;;;;2.33;1.10;;;10.40;71.30;;;11.85;53.14;95889.50;5030596;28;20049;-45
2023/11/02 00:40:57;;;;;;;1.13;0.97;;;10.40;71.10;;;11.85;53.33;95875.38;5030660;28;20416;-45
2023/11/02 00:43:26;;;;;;;1.23;0.90;;;10.50;71.10;;;11.87;53.21;95884.78;5030829;28;20049;-44
2023/11/02 00:45:54;;;;;;;0.90;0.80;;;10.50;71.00;;;11.90;53.24;95876.38;5032315;28;20393;-44
2023/11/02 00:48:27;;;;;;;1.27;0.90;;;10.40;71.10;;;11.94;53.35;95877.59;5030523;28;20046;-46
2023/11/02 00:51:12;;;;;;;0.98;0.80;;;10.40;71.10;;;11.94;53.18;95872.28;5031878;28;20057;-46
2023/11/02 00:53:44;;;;;;;2.07;1.33;;;10.50;71.10;;;11.97;53.29;95871.84;5025271;28;20037;-49
2023/11/02 00:56:13;;;;;;;2.03;0.80;;;10.40;72.00;;;11.96;53.14;95867.53;5030805;28;20045;-46
2023/11/02 00:58:51;;;;;;;3.63;1.00;;;10.40;71.00;;;11.94;52.97;95866.94;5034299;28;20040;-47
2023/11/02 01:01:22;;;;;;;1.40;0.80;;;10.50;71.00;;;11.93;53.13;95856.47;5030870;28;20055;-45
2023/11/02 01:03:54;;;;;;;2.13;0.70;;;10.40;71.10;;;11.92;53.33;95860.16;5022894;28;20067;-45
2023/11/02 01:06:28;;;;;;;1.17;0.80;;;10.40;71.10;;;11.93;53.38;95870.63;5050332;28;20079;-47
2023/11/02 01:09:04;;;;;;;1.37;1.10;;;10.50;70.90;;;11.94;53.13;95858.09;5017265;28;20076;-50
2023/11/02 01:11:36;;;;;;;3.03;1.43;;;10.50;70.90;;;11.95;53.13;95849.91;5034411;28;20041;-44
2023/11/02 01:14:49;;;;;;;0.90;0.70;;;10.50;70.70;;;11.95;53.14;95841.09;5033117;28;20064;-44
2023/11/02 01:17:35;;;;;;;2.17;1.23;;;10.50;70.20;;;11.99;53.14;95835.09;5031196;28;20064;-44
2023/11/02 01:20:11;;;;;;;1.80;1.00;;;10.50;70.60;;;12.04;53.23;95823.81;5051471;28;20564;-45
2023/11/02 01:22:50;;;;;;;2.03;0.90;;;10.50;70.80;;;12.02;52.80;95817.88;5043927;28;20040;-46
2023/11/02 01:25:21;;;;;;;1.33;0.97;;;10.50;70.70;;;12.02;53.03;95810.69;5033950;28;20049;-45
2023/11/02 01:27:49;;;;;;;1.57;1.13;;;10.50;70.50;;;12.04;52.80;95802.47;5051327;28;20041;-43
2023/11/02 01:30:22;;;;;;;1.13;1.00;;;10.50;70.30;;;12.05;52.71;95789.94;5025184;28;20053;-44
2023/11/02 01:32:50;;;;;;;1.67;0.77;;;10.40;70.10;;;12.06;52.94;95771.06;5032792;28;20067;-45
2023/11/02 01:35:42;;;;;;;0.83;0.80;;;10.50;70.00;;;12.06;52.82;95762.22;5032922;28;20049;-47
2023/11/02 01:38:13;;;;;;;2.47;0.97;;;10.50;69.70;;;12.11;52.61;95757.06;5025102;28;20052;-46
2023/11/02 01:41:15;;;;;;;1.70;0.90;;;10.50;70.00;;;12.10;52.65;95752.78;5025322;28;20049;-45
2023/11/02 01:43:59;;;;;;;1.50;0.90;;;10.50;69.60;;;12.14;52.49;95748.66;5026389;28;20049;-44
2023/11/02 01:46:52;;;;;;;3.17;1.27;;;10.50;70.10;;;12.15;52.51;95737.72;5034114;28;20493;-47
2023/11/02 01:49:52;;;;;;;1.20;0.90;;;10.50;70.10;;;12.16;52.62;95735.91;5027227;28;20519;-45
2023/11/02 01:52:53;;;;;;;1.80;0.90;;;10.50;70.20;;;12.16;52.65;95736.72;5031956;28;20060;-47
2023/11/02 01:55:39;;;;;;;1.50;0.90;;;10.60;69.90;;;12.12;52.71;95732.84;5050785;28;20048;-45
2023/11/02 01:58:39;;;;;;;1.20;0.90;;;10.60;69.40;;;12.11;52.34;95728.53;5025318;28;20064;-46
2023/11/02 02:01:26;;;;;;;1.67;1.10;;;10.60;69.10;;;12.09;51.89;95711.13;5044810;28;20056;-48
2023/11/02 02:04:16;;;;;;;1.40;1.00;;;10.50;68.80;;;12.14;52.23;95711.31;5026615;28;20053;-44
2023/11/02 02:07:17;;;;;;;1.67;0.80;;;10.50;68.50;;;12.15;52.08;95713.72;5026004;28;20048;-47
2023/11/02 02:10:03;;;;;;;1.43;1.00;;;10.50;68.30;;;12.23;51.88;95703.81;5026779;28;20033;-43
2023/11/02 02:12:59;;;;;;;1.57;0.83;;;10.50;68.90;;;12.22;52.27;95700.34;5032724;28;20049;-46
2023/11/02 02:16:18;;;;;;;4.93;1.13;;;10.50;68.90;;;12.23;52.10;95693.16;5032406;28;20052;-47
2023/11/02 02:18:54;;;;;;;0.83;0.80;;;10.60;68.40;;;12.22;51.93;95687.00;5033064;28;20041;-47
2023/11/02 02:21:34;;;;;;;2.47;1.10;;;10.60;68.60;;;12.24;52.10;95681.47;5016314;28;20049;-49
2023/11/02 02:24:06;;;;;;;2.57;1.23;;;10.70;68.60;;;12.24;51.83;95678.78;5025044;28;20057;-49
2023/11/02 02:27:12;;;;;;;1.57;0.90;;;10.70;68.40;;;12.23;51.79;95672.63;5024699;28;20420;-44
2023/11/02 02:30:39;;;;;;;1.33;0.97;;;10.60;68.50;;;12.21;51.87;95656.03;5032556;28;20500;-49
2023/11/02 02:33:42;;;;;;;1.43;0.90;;;10.60;68.40;;;12.19;52.13;95644.75;5028247;28;20053;-46
2023/11/02 02:36:31;;;;;;;4.20;1.00;;;10.60;68.30;;;12.20;51.98;95638.41;5028444;28;20045;-49
2023/11/02 02:39:08;;;;;;;1.23;1.10;;;10.50;68.70;;;12.19;51.83;95634.91;5044831;28;20045;-47
2023/11/02 02:41:41;;;;;;;1.80;1.30;;;10.60;68.60;;;12.17;51.69;95625.50;5050127;28;20116;-45
2023/11/02 02:44:13;;;;;;;1.98;1.05;;;10.60;68.70;;;12.15;52.08;95614.22;5050581;28;20053;-46
2023/11/02 02:46:41;;;;;;;1.13;0.83;;;10.50;68.80;;;12.10;51.92;95612.22;5032580;28;20049;-48
2023/11/02 02:49:09;;;;;;;2.10;1.07;;;10.60;68.60;;;12.09;52.12;95602.59;5050220;28;20116;-45
2023/11/02 02:51:44;;;;;;;4.23;1.30;;;10.50;68.60;;;12.08;51.98;95587.63;5030960;28;20443;-46
2023/11/02 02:54:14;;;;;;;2.53;1.20;;;10.60;68.50;;;12.07;51.89;95594.00;5032865;28;20412;-46
2023/11/02 02:56:45;;;;;;;2.17;1.00;;;10.60;68.50;;;12.04;52.07;95589.13;5023820;28;20048;-47
2023/11/02 02:59:17;;;;;;;3.30;1.17;;;10.60;68.60;;;12.04;52.29;95590.94;5016439;28;20052;-46
2023/11/02 03:01:47;;;;;;;2.53;1.20;;;10.60;68.30;;;12.00;52.25;95599.41;5042758;28;20041;-47
2023/11/02 03:04:19;;;;;;;2.27;1.17;;;10.60;68.50;;;11.97;52.69;95594.50;5055454;28;20051;-46
2023/11/02 03:06:59;;;;;;;1.40;1.03;;;10.60;68.60;;;11.99;52.55;95595.09;5048847;28;20051;-45
2023/11/02 03:09:31;;;;;;;1.63;1.20;;;10.60;68.70;;;11.94;52.24;95576.28;5055222;28;20053;-43
2023/11/02 03:12:05;;;;;;;2.92;1.15;;;10.60;68.60;;;11.91;52.19;95586.56;5047215;28;20052;-45
2023/11/02 03:14:41;;;;;;;4.95;1.33;;;10.50;68.90;;;11.91;52.51;95603.38;5055498;28;20052;-47
2023/11/02 03:18:13;;;;;;;1.30;1.20;;;10.60;69.10;;;11.92;52.91;95604.19;5074236;28;20049;-46
2023/11/02 03:20:42;;;;;;;2.60;1.23;;;10.60;69.50;;;11.97;53.58;95580.34;5025014;28;20134;-45
2023/11/02 03:23:34;;;;;;;2.40;1.23;;;10.50;70.20;;;11.95;52.84;95577.91;5047075;28;20052;-46
2023/11/02 03:26:09;;;;;;;2.80;1.40;;;10.50;71.20;;;11.97;53.40;95599.81;5034994;28;20419;-48
2023/11/02 03:29:14;;;;;;;2.90;1.70;;;10.50;71.70;;;11.97;53.76;95586.50;5055765;28;20059;-48
2023/11/02 03:32:15;;;;;;;1.47;1.23;;;10.50;73.10;;;12.00;54.11;95563.91;5054517;28;20045;-46
2023/11/02 03:35:13;;;;;;;2.27;1.10;;;10.40;74.90;;;11.98;54.32;95566.81;5039655;28;20052;-44
2023/11/02 03:38:06;;;;;;;2.73;1.70;;;10.40;75.50;;;12.02;54.27;95553.84;5073171;28;20524;-45
2023/11/02 03:41:04;;;;;;;1.53;1.30;;;10.40;76.00;;;11.98;54.85;95542.81;5055209;28;20420;-46
2023/11/02 03:44:04;;;;;;;1.33;0.97;;;10.40;77.00;;;12.00;55.17;95532.72;5057215;28;20044;-46
2023/11/02 03:47:18;;;;;;;2.60;1.50;;;10.40;77.00;;;11.99;55.02;95522.28;5058546;28;20408;-47
2023/11/02 03:50:14;;;;;;;2.88;1.35;;;10.30;78.30;;;11.99;55.26;95516.94;5073270;28;20420;-46
2023/11/02 03:53:19;;;;;;;3.10;1.20;;;10.30;78.50;;;12.00;55.65;95495.41;5057659;28;20044;-45
2023/11/02 03:56:29;;;;;;;3.15;2.30;;;10.30;81.70;;;12.01;55.83;95481.00;5058094;28;20032;-44
2023/11/02 03:59:17;;;;;;;1.40;1.30;;;10.20;81.90;;;12.04;55.87;95470.94;5065997;28;20045;-48
2023/11/02 04:01:54;;;;;;;3.20;1.20;;;10.30;81.20;;;12.00;56.31;95449.25;5072410;28;20044;-44
2023/11/02 04:04:51;;;;;;;1.63;1.20;;;10.30;81.00;;;11.94;56.01;95437.63;5070466;28;20040;-46
2023/11/02 04:07:18;;;;;;;3.33;1.50;;;10.30;80.40;;;11.96;56.14;95424.06;5051844;28;20048;-45
2023/11/02 04:10:04;;;;;;;2.23;1.20;;;10.30;80.40;;;11.95;56.91;95398.44;5072529;28;20322;-44
2023/11/02 04:12:49;;;;;;;2.63;1.27;;;10.40;81.60;;;11.94;56.85;95372.81;5072833;28;20048;-46
2023/11/02 04:15:17;;;;;;;1.60;1.30;;;10.30;82.30;;;11.94;57.07;95357.63;5072018;28;20364;-47
2023/11/02 04:17:44;;;;;;;2.63;1.30;;;10.20;83.70;;;11.97;57.27;95343.03;5072520;28;20074;-49
2023/11/02 04:20:12;;;;;;;3.27;1.27;;;10.20;84.20;;;11.97;57.72;95337.69;5072273;28;20032;-45
2023/11/02 04:22:40;;;;;;;1.63;1.30;;;10.20;84.70;;;11.99;57.41;95341.75;5072249;28;20044;-46
2023/11/02 04:25:08;;;;;;;2.50;1.20;;;10.20;85.20;;;11.99;57.32;95352.44;5054964;28;20672;-45
2023/11/02 04:27:37;;;;;;;1.10;1.00;;;10.20;84.80;;;11.97;57.44;95343.84;5054593;28;20504;-46
2023/11/02 04:30:05;;;;;;;1.20;1.10;;;10.20;83.20;;;11.95;57.68;95334.44;5072332;28;20053;-45
2023/11/02 04:32:33;;;;;;;1.67;1.33;;;10.30;83.20;;;11.92;57.25;95338.38;5072315;28;20048;-46
2023/11/02 04:35:01;;;;;;;3.40;1.30;;;10.30;81.80;;;11.85;57.37;95321.63;5071745;28;20048;-44
2023/11/02 04:37:29;;;;;;;2.00;1.80;;;10.30;82.20;;;11.88;57.48;95315.03;5045585;28;20052;-44
2023/11/02 04:39:57;;;;;;;1.67;1.30;;;10.30;81.60;;;11.88;57.75;95318.50;5072224;28;20419;-43
2023/11/02 04:42:24;;;;;;;2.20;1.20;;;10.40;81.10;;;11.85;57.95;95318.97;5071860;28;20063;-45
2023/11/02 04:44:52;;;;;;;2.47;1.10;;;10.40;81.10;;;11.89;57.87;95314.84;5072134;28;20052;-45
2023/11/02 04:47:20;;;;;;;2.67;1.73;;;10.40;81.70;;;11.93;57.55;95292.00;5071710;28;20064;-47
2023/11/02 04:49:47;;;;;;;1.43;1.27;;;10.50;81.40;;;11.94;58.00;95288.31;5072007;28;20040;-44
2023/11/02 04:52:15;;;;;;;2.50;1.40;;;10.40;82.20;;;11.94;57.80;95274.97;5071684;28;20047;-46
2023/11/02 04:54:43;;;;;;;2.93;1.50;;;10.40;82.00;;;11.96;57.83;95267.56;5071887;28;20408;-45
2023/11/02 04:57:11;;;;;;;3.33;1.53;;;10.40;82.30;;;11.95;57.86;95257.94;5053671;28;20052;-46
2023/11/02 04:59:42;;;;;;;3.27;1.40;;;10.40;82.10;;;11.94;57.81;95258.16;5071723;28;20068;-48
2023/11/02 05:02:10;;;;;;;2.53;1.37;;;10.40;81.80;;;11.92;57.91;95279.72;5071325;28;20047;-49
2023/11/02 05:04:38;;;;;;;1.70;1.13;;;10.40;81.80;;;11.92;57.74;95268.22;5071709;28;20049;-43
2023/11/02 05:07:06;;;;;;;3.10;1.67;;;10.40;81.40;;;11.94;57.78;95255.47;5071556;28;20044;-45
2023/11/02 05:09:34;;;;;;;1.30;1.07;;;10.40;81.90;;;11.97;57.94;95245.19;5071238;28;20044;-49
2023/11/02 05:12:02;;;;;;;3.20;1.77;;;10.40;82.50;;;11.98;57.72;95214.00;5071232;28;20048;-48
2023/11/02 05:14:29;;;;;;;1.83;1.30;;;10.40;81.80;;;11.98;57.68;95206.81;5053907;28;20420;-46
2023/11/02 05:16:57;;;;;;;2.53;1.37;;;10.40;81.60;;;12.01;57.92;95206.34;5071379;28;20055;-44
2023/11/02 05:19:25;;;;;;;3.33;1.50;;;10.40;82.20;;;12.00;57.67;95194.06;5071535;28;20045;-45
2023/11/02 05:21:52;;;;;;;2.43;1.43;;;10.40;81.90;;;11.96;57.68;95189.41;5071048;28;20044;-44
2023/11/02 05:24:20;;;;;;;2.10;1.40;;;10.40;81.30;;;11.93;57.65;95190.69;5053121;28;20060;-44
2023/11/02 05:26:48;;;;;;;1.80;1.33;;;10.40;81.20;;;11.92;58.00;95172.25;5071304;28;20159;-48
2023/11/02 05:29:15;;;;;;;2.17;1.07;;;10.40;80.60;;;11.90;57.66;95177.00;5052890;28;20044;-46
2023/11/02 05:31:43;;;;;;;1.57;1.20;;;10.40;79.90;;;11.95;57.62;95150.47;5070935;28;20040;-43
2023/11/02 05:34:10;;;;;;;1.67;1.27;;;10.40;79.80;;;11.93;57.68;95120.56;5071201;28;20045;-44
2023/11/02 05:36:38;;;;;;;2.13;1.30;;;10.50;79.40;;;11.95;57.48;95111.28;5071075;28;20036;-48
2023/11/02 05:39:06;;;;;;;6.80;1.40;;;10.50;80.00;;;11.98;57.79;95118.84;5070941;28;20044;-46
2023/11/02 05:41:34;;;;;;;2.13;1.17;;;10.60;79.80;;;11.99;57.65;95119.63;5070896;28;20041;-44
2023/11/02 05:44:02;;;;;;;1.77;1.10;;;10.50;80.10;;;11.99;57.83;95149.78;5071219;28;20488;-44
2023/11/02 05:46:29;;;;;;;1.40;0.93;;;10.50;79.60;;;12.00;57.64;95174.59;5053117;28;20529;-44
2023/11/02 05:48:57;;;;;;;1.20;1.10;;;10.60;79.10;;;12.05;57.50;95180.03;5071015;28;20051;-44
2023/11/02 05:51:25;;;;;;;1.50;1.08;;;10.60;79.90;;;12.12;57.25;95211.94;5070333;28;20048;-49
2023/11/02 05:53:53;;;;;;;1.43;1.10;;;10.60;79.70;;;12.16;57.24;95232.59;5070427;28;20055;-48
2023/11/02 05:56:20;;;;;;;1.80;1.20;;;10.50;79.30;;;12.23;56.86;95253.81;5070518;28;20041;-47
2023/11/02 05:58:53;;;;;;;2.90;1.63;;;10.60;78.40;;;12.26;56.94;95274.69;5053143;28;20037;-47
2023/11/02 06:01:21;;;;;;;2.73;1.60;;;10.50;79.20;;;12.22;56.99;95302.88;5070815;28;20044;-46
2023/11/02 06:03:48;;;;;;;2.30;1.53;;;10.50;80.20;;;12.07;57.20;95308.63;5070787;28;20045;-44
2023/11/02 06:06:16;;;;;;;2.40;1.50;;;10.30;81.90;;;12.03;57.95;95320.78;5070980;28;20044;-45
2023/11/02 06:08:44;;;;;;;2.47;1.40;;;10.20;83.10;;;12.02;57.88;95338.66;5051565;28;20048;-44
2023/11/02 06:11:11;;;;;;;1.80;1.50;;;10.20;84.30;;;12.00;58.23;95356.72;5070711;28;20051;-47
2023/11/02 06:13:39;;;;;;;3.10;1.47;;;10.10;86.40;;;11.99;58.53;95340.94;5070835;28;20415;-47
2023/11/02 06:16:10;;;;;;;2.23;1.50;;;10.10;87.00;;;11.96;59.41;95338.72;5070481;28;20044;-46
2023/11/02 06:18:37;;;;;;;4.50;1.90;;;10.10;88.70;;;11.93;59.13;95340.00;5070565;28;20037;-43
2023/11/02 06:21:05;;;;;;;2.80;1.60;;;10.10;89.10;;;11.92;59.18;95330.38;5070391;28;20048;-46
2023/11/02 06:23:33;;;;;;;3.97;1.67;;;10.00;89.90;;;11.95;59.40;95313.91;5052028;28;20041;-44
2023/11/02 06:26:01;;;;;;;3.10;1.90;;;10.10;91.00;;;11.97;59.50;95306.50;5070212;28;20063;-46
2023/11/02 06:28:29;;;;;;;3.90;1.53;;;10.10;91.90;;;11.97;59.97;95298.50;5069957;28;20037;-45
2023/11/02 06:30:56;;;;;;;2.83;1.90;;;10.10;93.00;;;11.97;59.95;95289.69;5069753;28;20048;-50
2023/11/02 06:33:29;;;;;;;2.13;1.80;;;10.00;93.10;;;11.98;60.22;95285.97;5070066;28;20045;-46
2023/11/02 06:35:57;;;;;;;2.20;1.42;;;10.00;93.30;;;11.96;59.90;95280.06;5052616;28;20096;-44
2023/11/02 06:38:25;;;;;;;1.63;1.33;;;10.10;92.60;;;11.93;60.19;95284.00;5071065;28;20048;-45
2023/11/02 06:40:52;;;;;;;4.33;1.07;;;10.10;92.50;;;11.96;60.02;95278.22;5073218;28;20044;-48
2023/11/02 06:43:20;;;;;;;2.60;1.20;;;10.20;91.00;;;11.95;60.42;95275.78;5073680;28;20043;-45
2023/11/02 06:45:48;;;;;;;3.80;1.73;;;10.30;91.60;;;11.98;60.32;95270.81;5073645;28;20058;-46
2023/11/02 06:48:15;;;;;;;2.43;1.20;;;10.30;91.10;;;11.98;60.52;95265.47;5072763;28;20063;-47
2023/11/02 06:50:46;;;;;;;4.53;1.30;;;10.30;91.10;;;11.98;60.80;95269.97;5073193;28;20036;-46
2023/11/02 06:53:14;;;;;;;1.13;1.03;;;10.30;90.60;;;12.01;60.63;95258.88;5056166;28;20388;-47
2023/11/02 06:55:41;;;;;;;2.03;1.20;;;10.30;91.50;;;12.02;60.77;95255.97;5073129;28;20044;-49
2023/11/02 06:58:09;;;;;;;1.60;1.23;;;10.30;91.50;;;12.04;60.38;95238.94;5073006;28;20048;-46
2023/11/02 07:00:37;;;;;;;4.97;2.23;;;10.30;91.90;;;11.99;60.59;95248.44;5055177;28;20040;-44
2023/11/02 07:03:05;;;;;;;2.63;1.50;;;10.30;91.00;;;11.99;61.07;95244.97;5073236;28;20044;-45
2023/11/02 07:05:32;;;;;;;1.63;1.30;;;10.30;91.80;;;12.01;60.70;95226.88;5070908;28;20412;-46
2023/11/02 07:08:00;;;;;;;2.47;2.07;;;10.30;91.60;;;12.01;60.96;95242.88;5073260;28;20052;-44
2023/11/02 07:10:28;;;;;;;4.30;1.60;;;10.30;92.10;;;12.02;61.00;95231.19;5073041;28;20055;-43
2023/11/02 07:12:55;;;;;;;2.17;1.40;;;10.30;92.30;;;12.00;61.06;95235.94;5054314;28;20055;-45
2023/11/02 07:15:23;;;;;;;2.13;1.40;;;10.30;91.60;;;12.01;61.07;95225.00;5072638;28;20036;-48
2023/11/02 07:17:51;;;;;;;2.70;1.37;;;10.30;92.00;;;12.05;60.97;95235.22;5072530;28;20400;-46
2023/11/02 07:20:19;;;;;;;2.40;1.70;;;10.30;92.60;;;12.01;60.95;95226.88;5054958;28;20048;-49
2023/11/02 07:22:46;;;;;;;2.10;1.27;;;10.30;92.10;;;12.02;61.06;95220.50;5072657;28;20041;-48
2023/11/02 07:25:14;;;;;;;2.63;1.40;;;10.30;91.60;;;12.03;61.31;95230.13;5072988;28;20048;-45
2023/11/02 07:27:42;;;;;;;1.47;1.20;;;10.40;91.80;;;12.06;61.48;95224.34;5055227;28;20096;-44
2023/11/02 07:30:11;;;;;;;2.03;1.50;;;10.40;92.30;;;12.05;61.19;95217.38;5064377;28;20041;-48
2023/11/02 07:32:39;;;;;;;1.80;1.50;;;10.30;92.20;;;12.04;61.37;95205.09;5072811;28;20103;-46
2023/11/02 07:35:07;;;;;;;4.13;1.70;;;10.30;92.90;;;12.06;61.50;95202.19;5072046;28;20044;-43
2023/11/02 07:37:35;;;;;;;2.20;1.50;;;10.30;93.30;;;12.07;61.33;95185.94;5072429;28;20033;-42
2023/11/02 07:40:04;;;;;;;2.23;1.40;;;10.20;93.60;;;12.04;61.27;95185.59;5054723;28;20628;-42
2023/11/02 07:42:32;;;;;;;1.77;1.50;;;10.30;93.70;;;12.02;61.55;95175.19;5072756;28;20044;-43
2023/11/02 07:45:00;;;;;;;1.93;1.20;;;10.30;92.70;;;11.99;61.72;95183.63;5072400;28;20083;-44
2023/11/02 07:47:27;;;;;;;2.80;1.43;;;10.30;92.10;;;12.01;61.84;95178.88;5072380;28;20044;-47
2023/11/02 07:49:56;;;;;;;2.30;1.20;;;10.40;92.70;;;12.00;61.90;95169.28;5071417;28;20044;-46
2023/11/02 07:52:24;;;;;;;3.30;1.17;;;10.30;92.50;;;12.04;61.65;95161.59;5070988;28;20047;-45
2023/11/02 07:54:52;;;;;;;2.00;1.45;;;10.30;93.10;;;12.00;61.73;95153.28;5072238;28;20055;-45
2023/11/02 07:57:19;;;;;;;3.27;1.37;;;10.40;92.70;;;12.02;61.70;95146.66;5072318;28;20044;-48
2023/11/02 07:59:47;;;;;;;1.83;1.23;;;10.40;93.10;;;12.08;61.96;95144.91;5072139;28;20048;-43
2023/11/02 08:02:15;;;;;;;2.27;1.50;;;10.40;94.10;;;12.10;62.02;95144.69;5072017;28;20047;-45
2023/11/02 08:04:42;;;;;;;4.70;1.40;;;10.40;93.30;;;12.06;61.75;95140.84;5072435;28;20507;-43
2023/11/02 08:07:10;;;;;;;3.27;1.40;;;10.40;92.30;;;12.02;61.99;95135.19;5053754;28;20044;-48
2023/11/02 08:09:38;;;;;;;4.10;1.33;;;10.50;92.20;;;12.01;62.11;95145.00;5072253;28;20451;-45
2023/11/02 08:12:10;;;;;;;3.93;1.57;;;10.50;91.80;;;11.97;62.56;95133.19;5071627;28;20107;-41
2023/11/02 08:14:40;;;;;;;2.13;1.30;;;10.50;91.60;;;11.98;62.32;95129.50;5071716;28;20062;-43
2023/11/02 08:17:07;;;;;;;2.03;1.30;;;10.50;92.10;;;11.98;62.33;95126.00;5072133;28;20044;-46
2023/11/02 08:19:35;;;;;;;2.38;1.52;;;10.50;92.10;;;11.97;62.78;95135.06;5072299;28;20047;-44
2023/11/02 08:22:03;;;;;;;4.20;1.90;;;10.40;92.20;;;11.97;62.41;95130.53;5071240;28;20053;-45
2023/11/02 08:24:30;;;;;;;3.67;2.17;;;10.40;92.90;;;12.00;62.11;95129.28;5071896;28;20036;-44
2023/11/02 08:26:58;;;;;;;2.80;1.53;;;10.40;92.80;;;12.05;62.54;95123.22;5071603;28;20045;-44
2023/11/02 08:29:25;;;;;;;3.27;2.37;;;10.50;93.50;;;12.04;62.52;95116.25;5071664;28;20044;-43
2023/11/02 08:31:53;;;;;;;3.13;2.30;;;10.50;93.50;;;12.07;62.46;95126.47;5071275;28;20055;-42
2023/11/02 08:34:22;;;;;;;3.13;1.40;;;10.40;93.90;;;12.08;62.63;95106.75;5071744;28;20048;-43
2023/11/02 08:36:50;;;;;;;1.77;1.20;;;10.40;93.70;;;12.10;62.52;95112.69;5071632;28;20487;-42
2023/11/02 08:39:17;;;;;;;1.70;1.30;;;10.50;94.00;;;12.13;63.01;95112.22;5063836;28;20041;-42
2023/11/02 08:41:45;;;;;;;1.42;1.30;;;10.40;94.20;;;12.14;62.55;95109.31;5071027;28;20044;-44
2023/11/02 08:44:13;;;;;;;1.53;1.20;;;10.40;94.40;;;12.14;62.42;95103.19;5071042;28;20077;-42
2023/11/02 08:46:40;;;;;;;1.93;1.40;;;10.40;94.30;;;12.13;62.61;95090.88;5068936;28;20036;-44
2023/11/02 08:49:08;;;;;;;2.70;1.47;;;10.50;92.80;;;12.12;62.47;95092.75;5069604;28;20375;-42
2023/11/02 08:51:36;;;;;;;2.87;1.43;;;10.50;92.80;;;12.11;62.41;95090.31;5070161;28;20051;-47
2023/11/02 08:54:04;;;;;;;3.20;1.10;;;10.60;92.60;;;12.11;62.48;95080.44;5070850;28;20079;-41
2023/11/02 08:56:32;;;;;;;3.17;1.47;;;10.60;91.60;;;12.08;62.75;95067.59;5071359;28;20479;-43
2023/11/02 08:58:59;;;;;;;1.87;1.10;;;10.60;92.30;;;12.09;62.81;95063.84;5079289;28;20045;-42
2023/11/02 09:01:28;;;;;;;1.98;1.00;;;10.60;92.10;;;12.10;62.74;95072.69;5078473;28;20047;-46
2023/11/02 09:03:57;;;;;;;3.67;1.30;;;10.60;91.40;;;12.09;62.78;95069.19;5064202;28;20145;-42
2023/11/02 09:06:26;;;;;;;2.50;1.80;;;10.60;91.30;;;12.11;62.91;95076.97;5082133;28;20380;-42
2023/11/02 09:08:56;;;;;;;4.53;2.30;;;10.70;91.70;;;12.13;62.91;95073.00;5077421;28;20104;-42
2023/11/02 09:11:25;;;;;;;2.60;1.40;;;10.70;91.50;;;12.14;62.76;95077.31;5060870;28;20115;-46
2023/11/02 09:13:58;;;;;;;1.23;0.90;;;10.70;91.00;;;12.09;62.90;95079.84;5081611;28;20518;-44
2023/11/02 09:16:26;;;;;;;2.47;1.20;;;10.70;90.70;;;12.06;63.03;95071.50;5063191;28;20125;-42
2023/11/02 09:18:58;;;;;;;3.37;1.50;;;10.70;90.70;;;12.07;63.21;95079.28;5078283;28;20056;-45
2023/11/02 09:21:27;;;;;;;13.40;1.50;;;10.70;91.40;;;12.07;63.38;95087.28;5074557;28;20496;-42
2023/11/02 09:23:55;;;;;;;3.53;1.70;;;10.70;91.50;;;12.10;63.39;95100.16;5077425;28;20044;-44
2023/11/02 09:26:22;;;;;;;5.63;1.50;;;10.70;91.80;;;12.14;63.55;95105.84;5074407;28;20032;-42
2023/11/02 09:28:50;;;;;;;6.27;3.53;;;10.70;92.90;;;12.19;63.40;95109.44;5052512;28;20488;-43
2023/11/02 09:31:18;;;;;;;4.07;2.30;;;10.70;93.60;;;12.21;63.39;95125.19;5070679;28;20055;-46
2023/11/02 09:33:45;;;;;;;1.20;1.10;;;10.70;93.40;;;12.30;63.17;95129.13;5070702;28;20052;-43
2023/11/02 09:36:14;;;;;;;2.40;1.10;;;10.80;93.40;;;12.32;63.32;95120.91;5070651;28;20045;-45
2023/11/02 09:38:43;;;;;;;1.67;1.20;;;10.80;94.50;;;12.38;63.59;95122.63;5070327;28;20044;-46
2023/11/02 09:41:11;;;;;;;2.83;1.37;;;10.80;95.00;;;12.37;63.80;95129.03;5070230;28;20049;-46
2023/11/02 09:43:41;;;;;;;1.13;1.03;;;10.80;94.10;;;12.36;63.71;95132.72;5070269;28;20033;-44
2023/11/02 09:46:09;;;;;;;1.03;0.90;;;10.80;94.20;;;12.38;63.75;95128.78;5070555;28;20059;-45
2023/11/02 09:48:36;;;;;;;1.30;0.90;;;10.80;94.00;;;12.44;63.63;95127.03;5052927;28;20048;-47
2023/11/02 09:51:06;;;;;;;1.60;1.20;;;10.90;94.10;;;12.46;63.49;95124.13;5070061;28;20396;-44
2023/11/02 09:53:34;;;;;;;1.55;1.15;;;10.90;93.80;;;12.38;63.71;95119.97;5070559;28;20048;-44
2023/11/02 09:56:03;;;;;;;2.53;1.47;;;10.90;93.60;;;12.40;63.75;95115.19;5070261;28;20411;-47
2023/11/02 09:58:32;;;;;;;3.42;1.17;;;10.80;93.90;;;12.37;63.58;95110.34;5052659;28;20107;-49
2023/11/02 10:01:01;;;;;;;2.05;0.85;;;10.90;93.20;;;12.37;63.69;95108.50;5052335;28;20047;-45
2023/11/02 10:03:28;;;;;;;2.70;1.40;;;10.90;93.10;;;12.34;63.81;95113.47;5070418;28;20415;-43
2023/11/02 10:05:57;;;;;;;1.90;1.00;;;10.90;92.90;;;12.37;63.77;95107.69;5066520;28;20051;-43
2023/11/02 10:08:24;;;;;;;1.93;1.47;;;10.90;92.90;;;12.34;63.79;95106.28;5062493;28;20055;-44
2023/11/02 10:11:14;;;;;;;2.03;1.17;;;10.90;93.10;;;12.31;63.88;95111.25;5052122;28;20059;-48
2023/11/02 10:13:49;;;;;;;7.73;1.93;;;10.90;93.20;;;12.32;63.92;95099.56;5054634;28;20040;-46
2023/11/02 10:16:23;;;;;;;2.50;1.97;;;10.90;94.30;;;12.39;64.01;95092.25;5056826;28;20044;-46
2023/11/02 10:18:51;;;;;;;4.35;1.20;;;10.90;93.50;;;12.34;63.94;95084.94;5073834;28;20488;-43
2023/11/02 10:21:19;;;;;;;3.03;1.53;;;10.90;93.80;;;12.33;64.20;95078.00;5072857;28;20263;-47
2023/11/02 10:23:58;;;;;;;3.67;1.30;;;10.90;93.90;;;12.29;64.64;95076.84;5071537;28;20268;-44
2023/11/02 10:26:29;;;;;;;2.20;1.37;;;10.90;94.30;;;12.35;64.29;95070.56;5073778;28;20037;-45
2023/11/02 10:29:00;;;;;;;1.83;1.07;;;10.90;94.10;;;12.28;65.04;95061.06;5073179;28;20059;-48
2023/11/02 10:31:30;;;;;;;3.20;1.40;;;10.90;94.20;;;12.28;64.76;95055.72;5066227;28;20052;-45
2023/11/02 10:33:59;;;;;;;2.00;1.55;;;10.90;94.40;;;12.30;65.01;95053.63;5055843;28;20060;-45
2023/11/02 10:36:29;;;;;;;4.78;2.20;;;10.90;94.60;;;12.29;65.28;95054.66;5074016;28;20107;-43
2023/11/02 10:38:57;;;;;;;2.20;1.73;;;10.90;95.10;;;12.38;64.60;95040.72;5056528;28;20435;-44
2023/11/02 10:41:26;;;;;;;1.67;1.40;;;11.00;95.40;;;12.39;65.11;95029.03;5039426;28;20098;-48
2023/11/02 10:43:57;;;;;;;2.40;1.73;;;11.00;94.10;;;12.36;65.03;95002.00;5056313;28;20420;-45
2023/11/02 10:46:27;;;;;;;1.63;1.50;;;11.00;94.40;;;12.40;65.07;95001.28;5073727;28;20064;-47
2023/11/02 10:48:59;;;;;;;3.03;0.98;;;11.10;95.20;;;12.46;65.03;94988.84;5056231;28;20045;-45